Time;durP1;ratioP1;P1;durP2;ratioP2;P2;SDS_P1;SDS_P2;PMS_P1;PMS_P2;Temp;Humidity;BMP_temperature;BMP_pressure;BME280_temperature;BME280_humidity;BME280_pressure;Samples;Min_cycle;Max_cycle;Signal;HPM_P1;HPM_P2
2021/08/05 00:02:22;;;;;;;112.72;95.60;;;;;;;;;;4138144;34;20122;-84
2021/08/05 00:04:51;;;;;;;104.70;89.47;;;;;;;;;;4145798;34;20096;-84
2021/08/05 00:07:20;;;;;;;104.38;87.22;;;;;;;;;;4145398;34;20127;-84
2021/08/05 00:09:48;;;;;;;162.37;109.07;;;;;;;;;;4135694;34;20151;-85
2021/08/05 00:12:17;;;;;;;170.52;112.90;;;;;;;;;;4145536;34;20079;-83
2021/08/05 00:14:45;;;;;;;176.25;115.53;;;;;;;;;;4149903;34;20052;-85
2021/08/05 00:17:14;;;;;;;175.12;115.95;;;;;;;;;;4148491;34;20488;-83
2021/08/05 00:19:43;;;;;;;173.18;119.50;;;;;;;;;;4146265;34;20582;-84
2021/08/05 00:22:11;;;;;;;162.85;111.80;;;;;;;;;;4148053;34;21401;-84
2021/08/05 00:24:40;;;;;;;159.87;113.95;;;;;;;;;;4148216;34;20075;-84
2021/08/05 00:27:09;;;;;;;163.40;113.68;;;;;;;;;;4146663;34;20113;-84
2021/08/05 00:29:37;;;;;;;155.18;117.82;;;;;;;;;;4143718;34;20417;-84
2021/08/05 00:32:06;;;;;;;161.57;118.85;;;;;;;;;;4145275;34;20110;-84
2021/08/05 00:34:35;;;;;;;126.75;113.12;;;;;;;;;;4151392;34;20606;-84
2021/08/05 00:37:04;;;;;;;134.32;116.32;;;;;;;;;;4149076;34;20056;-84
2021/08/05 00:39:33;;;;;;;122.40;109.25;;;;;;;;;;4149389;34;20135;-84
2021/08/05 00:42:01;;;;;;;119.43;107.53;;;;;;;;;;4149361;34;20433;-84
2021/08/05 00:44:30;;;;;;;117.97;105.60;;;;;;;;;;4151919;34;20049;-83
2021/08/05 00:46:59;;;;;;;170.38;121.65;;;;;;;;;;4143848;34;20068;-83
2021/08/05 00:49:28;;;;;;;173.80;125.20;;;;;;;;;;4152324;34;20175;-84
2021/08/05 00:51:56;;;;;;;186.43;128.10;;;;;;;;;;4150362;34;20088;-84
2021/08/05 00:54:25;;;;;;;193.50;129.93;;;;;;;;;;4141041;34;20045;-83
2021/08/05 00:56:54;;;;;;;187.55;128.07;;;;;;;;;;4149938;34;20060;-84
2021/08/05 00:59:22;;;;;;;193.68;128.38;;;;;;;;;;4151011;34;20049;-84
2021/08/05 01:01:54;;;;;;;189.68;125.07;;;;;;;;;;4149828;34;20041;-84
2021/08/05 01:04:23;;;;;;;186.80;124.25;;;;;;;;;;4151329;34;20125;-83
2021/08/05 01:06:57;;;;;;;187.45;125.20;;;;;;;;;;4148936;34;20057;-84
2021/08/05 01:09:44;;;;;;;188.12;122.95;;;;;;;;;;4146789;34;20532;-85
2021/08/05 01:12:24;;;;;;;133.57;108.15;;;;;;;;;;4148240;34;20041;-84
2021/08/05 01:15:09;;;;;;;124.10;99.15;;;;;;;;;;4152940;34;20104;-84
2021/08/05 01:17:37;;;;;;;;;;;;;;;;;;4149458;34;20075;-83
2021/08/05 01:20:08;;;;;;;120.28;102.57;;;;;;;;;;4150844;34;20003;-83
2021/08/05 01:22:43;;;;;;;132.27;105.85;;;;;;;;;;4148417;34;20084;-84
2021/08/05 01:25:30;;;;;;;188.77;117.15;;;;;;;;;;4148339;34;20413;-84
2021/08/05 01:28:00;;;;;;;182.23;119.00;;;;;;;;;;4146619;34;20493;-84
2021/08/05 01:30:29;;;;;;;186.75;118.10;;;;;;;;;;4146251;34;20096;-83
2021/08/05 01:32:58;;;;;;;178.02;117.47;;;;;;;;;;4147092;34;20510;-85
2021/08/05 01:35:27;;;;;;;171.18;117.22;;;;;;;;;;4141936;34;20176;-84
2021/08/05 01:37:56;;;;;;;179.02;121.30;;;;;;;;;;4149380;34;20064;-84
2021/08/05 01:40:25;;;;;;;183.65;124.53;;;;;;;;;;4149821;34;20083;-84
2021/08/05 01:42:55;;;;;;;166.50;119.03;;;;;;;;;;4152788;34;20135;-83
2021/08/05 01:45:24;;;;;;;158.05;115.00;;;;;;;;;;4146251;34;20562;-83
2021/08/05 01:47:52;;;;;;;161.18;112.82;;;;;;;;;;4153899;34;20207;-84
2021/08/05 01:50:21;;;;;;;103.07;92.62;;;;;;;;;;4144216;34;20593;-83
2021/08/05 01:52:50;;;;;;;101.97;91.03;;;;;;;;;;4148246;34;20121;-84
2021/08/05 01:55:18;;;;;;;100.05;89.72;;;;;;;;;;4149157;34;20112;-83
2021/08/05 01:57:47;;;;;;;97.37;87.35;;;;;;;;;;4149663;34;20150;-84
2021/08/05 02:00:16;;;;;;;96.75;86.45;;;;;;;;;;4147067;34;20119;-84
2021/08/05 02:02:45;;;;;;;143.75;103.90;;;;;;;;;;4149753;34;20596;-84
2021/08/05 02:05:20;;;;;;;140.27;103.97;;;;;;;;;;4151363;34;20048;-84
2021/08/05 02:07:51;;;;;;;128.38;95.87;;;;;;;;;;4147458;34;20086;-84
2021/08/05 02:10:26;;;;;;;131.43;92.72;;;;;;;;;;4149726;34;20688;-83
2021/08/05 02:12:59;;;;;;;127.57;91.22;;;;;;;;;;4146785;34;20105;-83
2021/08/05 02:15:29;;;;;;;124.30;90.62;;;;;;;;;;4141878;34;20136;-84
2021/08/05 02:17:59;;;;;;;121.57;88.45;;;;;;;;;;4149769;34;20087;-83
2021/08/05 02:20:28;;;;;;;119.40;88.37;;;;;;;;;;4155579;34;20177;-84
2021/08/05 02:22:56;;;;;;;115.37;85.30;;;;;;;;;;4156125;34;20086;-84
2021/08/05 02:25:25;;;;;;;117.47;85.95;;;;;;;;;;4159597;34;20472;-84
2021/08/05 02:27:54;;;;;;;92.40;79.43;;;;;;;;;;4153420;34;20094;-84
2021/08/05 02:30:22;;;;;;;92.43;82.97;;;;;;;;;;4150759;34;20105;-83
2021/08/05 02:32:51;;;;;;;93.50;83.65;;;;;;;;;;4148694;34;20421;-84
2021/08/05 02:35:20;;;;;;;90.15;80.80;;;;;;;;;;4139948;34;20060;-84
2021/08/05 02:37:49;;;;;;;83.43;74.70;;;;;;;;;;4151214;34;20047;-84
2021/08/05 02:40:17;;;;;;;120.75;90.65;;;;;;;;;;4149587;34;20080;-84
2021/08/05 02:42:47;;;;;;;123.00;91.30;;;;;;;;;;4152038;34;20535;-84
2021/08/05 02:45:16;;;;;;;111.18;84.43;;;;;;;;;;4152738;34;20562;-84
2021/08/05 02:47:45;;;;;;;113.03;83.28;;;;;;;;;;4145046;34;20087;-85
2021/08/05 02:50:15;;;;;;;113.85;82.47;;;;;;;;;;4148550;34;20121;-85
2021/08/05 02:52:44;;;;;;;111.82;79.78;;;;;;;;;;4153048;34;20052;-84
2021/08/05 02:55:12;;;;;;;112.50;80.50;;;;;;;;;;4151117;34;20452;-84
2021/08/05 02:57:42;;;;;;;109.07;78.12;;;;;;;;;;4148761;34;20125;-83
2021/08/05 03:00:12;;;;;;;99.97;76.47;;;;;;;;;;4137118;34;20065;-84
2021/08/05 03:02:42;;;;;;;102.45;77.95;;;;;;;;;;4150307;34;20080;-84
2021/08/05 03:05:11;;;;;;;76.70;68.60;;;;;;;;;;4153995;34;20076;-83
2021/08/05 03:07:39;;;;;;;76.95;68.55;;;;;;;;;;4147469;34;20048;-84
2021/08/05 07:47:11;;;;;;;142.80;119.82;;;;;;;;;;4581987;28;20482;-84
2021/08/05 07:49:40;;;;;;;199.48;140.40;;;;;;;;;;4146739;34;20057;-83
2021/08/05 07:52:10;;;;;;;205.37;139.73;;;;;;;;;;4148470;34;20072;-83
2021/08/05 07:54:38;;;;;;;207.25;145.40;;;;;;;;;;4144346;34;20410;-83
2021/08/05 07:57:07;;;;;;;222.30;165.25;;;;;;;;;;4144868;34;20560;-84
2021/08/05 07:59:35;;;;;;;218.50;159.73;;;;;;;;;;4140536;34;20052;-83
2021/08/05 08:02:04;;;;;;;232.98;168.35;;;;;;;;;;4136525;34;20119;-83
2021/08/05 08:04:33;;;;;;;217.35;161.00;;;;;;;;;;4142840;34;20111;-84
2021/08/05 08:07:02;;;;;;;205.02;152.48;;;;;;;;;;4141057;34;20083;-83
2021/08/05 08:09:30;;;;;;;240.12;183.62;;;;;;;;;;4137199;34;20071;-83
2021/08/05 08:11:59;;;;;;;245.12;180.60;;;;;;;;;;4139830;34;20130;-83
2021/08/05 08:14:27;;;;;;;165.85;145.07;;;;;;;;;;4148392;34;20456;-84
2021/08/05 08:16:56;;;;;;;177.43;146.40;;;;;;;;;;4150847;34;20104;-84
2021/08/05 08:19:25;;;;;;;192.95;161.10;;;;;;;;;;4145765;34;20476;-83
2021/08/05 08:21:53;;;;;;;181.87;151.60;;;;;;;;;;4139783;34;20480;-84
2021/08/05 08:24:23;;;;;;;185.68;153.80;;;;;;;;;;4145532;34;20107;-85
2021/08/05 08:26:51;;;;;;;223.20;170.02;;;;;;;;;;4138859;34;20351;-83
2021/08/05 08:29:20;;;;;;;212.95;168.50;;;;;;;;;;4143604;34;20118;-84
2021/08/05 08:31:49;;;;;;;209.62;143.27;;;;;;;;;;4145305;34;20399;-84
2021/08/05 08:34:18;;;;;;;251.37;191.10;;;;;;;;;;4136973;34;20087;-84
2021/08/05 08:36:46;;;;;;;242.60;185.52;;;;;;;;;;4145259;34;20141;-84
2021/08/05 08:39:15;;;;;;;228.82;174.40;;;;;;;;;;4142859;34;20095;-84
2021/08/05 08:41:44;;;;;;;233.02;182.52;;;;;;;;;;4141742;34;20396;-84
2021/08/05 08:44:14;;;;;;;229.27;185.90;;;;;;;;;;4143460;34;20115;-84
2021/08/05 08:46:46;;;;;;;212.32;167.75;;;;;;;;;;4143589;34;20434;-84
2021/08/05 08:49:15;;;;;;;165.50;147.48;;;;;;;;;;4141279;34;20092;-84
2021/08/05 08:51:46;;;;;;;313.98;264.05;;;;;;;;;;4142870;34;20157;-84
2021/08/05 08:54:14;;;;;;;129.77;118.43;;;;;;;;;;4147269;34;20376;-84
2021/08/05 08:56:44;;;;;;;116.05;106.35;;;;;;;;;;4150933;34;20294;-84
2021/08/05 08:59:12;;;;;;;112.78;103.50;;;;;;;;;;4152719;34;20149;-83
2021/08/05 09:01:41;;;;;;;99.28;91.15;;;;;;;;;;4137594;34;20060;-84
2021/08/05 09:04:10;;;;;;;123.05;111.43;;;;;;;;;;4147061;34;20057;-83
2021/08/05 09:06:40;;;;;;;105.47;95.60;;;;;;;;;;4145120;34;20154;-83
2021/08/05 09:09:09;;;;;;;129.43;116.80;;;;;;;;;;4153093;34;20040;-84
2021/08/05 09:11:37;;;;;;;147.90;132.65;;;;;;;;;;4144295;34;20438;-84
2021/08/05 09:14:06;;;;;;;131.82;119.32;;;;;;;;;;4148089;34;20096;-84
2021/08/05 09:16:35;;;;;;;113.97;102.60;;;;;;;;;;4146360;34;20691;-84
2021/08/05 09:19:08;;;;;;;101.15;91.47;;;;;;;;;;4149758;34;20068;-84
2021/08/05 09:21:37;;;;;;;108.75;98.10;;;;;;;;;;4139629;34;20095;-84
2021/08/05 09:24:12;;;;;;;117.87;105.82;;;;;;;;;;4154779;34;20084;-84
2021/08/05 09:26:46;;;;;;;114.43;104.03;;;;;;;;;;4145876;34;20105;-84
2021/08/05 09:29:16;;;;;;;91.45;83.07;;;;;;;;;;4151084;34;20421;-84
2021/08/05 09:31:44;;;;;;;60.22;54.50;;;;;;;;;;4149638;34;20510;-84
2021/08/05 09:34:16;;;;;;;76.62;69.78;;;;;;;;;;4143348;34;20520;-84
2021/08/05 09:36:46;;;;;;;66.05;60.42;;;;;;;;;;4148474;34;20132;-84
2021/08/05 09:39:15;;;;;;;102.57;93.97;;;;;;;;;;4146311;34;20088;-84
2021/08/05 09:41:54;;;;;;;102.05;92.50;;;;;;;;;;4145765;34;20126;-85
2021/08/05 09:44:23;;;;;;;85.53;77.90;;;;;;;;;;4148841;34;20132;-84
2021/08/05 09:47:03;;;;;;;72.70;65.85;;;;;;;;;;4146481;34;20115;-84
2021/08/05 09:49:34;;;;;;;53.13;48.03;;;;;;;;;;4144833;34;20124;-84
2021/08/05 09:52:06;;;;;;;40.38;36.30;;;;;;;;;;4147098;34;20105;-84
2021/08/05 09:54:49;;;;;;;15.13;14.02;;;;;;;;;;4146179;34;20072;-84
2021/08/05 09:57:27;;;;;;;16.35;15.05;;;;;;;;;;4156348;34;20150;-83
2021/08/05 10:00:00;;;;;;;11.63;10.43;;;;;;;;;;4144614;34;20436;-84
2021/08/05 10:02:48;;;;;;;9.48;4.30;;;;;;;;;;4141973;34;20417;-83
2021/08/05 10:05:19;;;;;;;12.48;6.78;;;;;;;;;;4144446;34;20436;-84
2021/08/05 10:07:48;;;;;;;9.88;2.72;;;;;;;;;;4147121;34;20538;-83
2021/08/05 10:10:28;;;;;;;6.30;1.83;;;;;;;;;;4140894;34;20151;-84
2021/08/05 10:13:00;;;;;;;11.18;2.15;;;;;;;;;;4142879;34;20203;-85
2021/08/05 10:15:30;;;;;;;6.32;1.80;;;;;;;;;;4142891;34;20401;-84
2021/08/05 10:18:00;;;;;;;5.15;1.80;;;;;;;;;;4145368;34;20063;-85
2021/08/05 10:20:30;;;;;;;7.25;1.95;;;;;;;;;;4138328;34;20100;-84
2021/08/05 10:23:00;;;;;;;9.88;1.90;;;;;;;;;;4144057;34;20686;-84
2021/08/05 10:25:29;;;;;;;5.55;1.58;;;;;;;;;;4141666;34;20040;-84
2021/08/05 10:28:00;;;;;;;10.57;2.05;;;;;;;;;;4146632;34;20080;-86
2021/08/05 10:30:29;;;;;;;5.53;1.45;;;;;;;;;;4145282;34;20484;-84
2021/08/05 10:32:58;;;;;;;7.90;1.48;;;;;;;;;;4138538;34;20102;-84
2021/08/05 10:35:26;;;;;;;8.45;1.83;;;;;;;;;;4143921;34;20064;-84
2021/08/05 10:37:56;;;;;;;7.55;1.65;;;;;;;;;;4140178;34;20064;-85
2021/08/05 10:40:24;;;;;;;6.03;1.33;;;;;;;;;;4141377;34;20133;-84
2021/08/05 10:42:55;;;;;;;8.65;1.92;;;;;;;;;;4137820;34;20103;-84
2021/08/05 10:45:24;;;;;;;7.93;1.62;;;;;;;;;;4149598;34;21436;-84
2021/08/05 10:47:54;;;;;;;5.00;1.35;;;;;;;;;;4151211;34;20137;-84
2021/08/05 10:50:23;;;;;;;6.25;1.40;;;;;;;;;;4152093;34;20109;-85
2021/08/05 10:52:55;;;;;;;5.10;1.77;;;;;;;;;;4154246;34;20411;-85
2021/08/05 10:55:27;;;;;;;4.85;1.33;;;;;;;;;;4150029;34;20052;-84
2021/08/05 10:58:06;;;;;;;10.23;1.90;;;;;;;;;;4152693;34;20052;-85
2021/08/05 11:00:50;;;;;;;6.07;1.40;;;;;;;;;;4150484;34;21528;-84
2021/08/05 11:03:19;;;;;;;;;;;;;;;;;;4141474;34;20610;-84
2021/08/05 11:05:48;;;;;;;5.20;1.35;;;;;;;;;;4140353;34;20023;-84
2021/08/05 11:08:18;;;;;;;5.60;1.52;;;;;;;;;;4139510;34;20087;-84
2021/08/05 11:10:47;;;;;;;5.37;1.62;;;;;;;;;;4143916;34;20049;-84
2021/08/05 11:13:16;;;;;;;7.12;1.77;;;;;;;;;;4146479;34;20064;-84
2021/08/05 11:15:45;;;;;;;6.12;1.33;;;;;;;;;;4144429;34;20056;-83
2021/08/05 11:18:19;;;;;;;7.85;1.80;;;;;;;;;;4151585;34;20474;-84
2021/08/05 11:20:47;;;;;;;5.80;1.50;;;;;;;;;;4153972;34;20076;-84
2021/08/05 11:23:29;;;;;;;6.43;1.25;;;;;;;;;;4157401;34;20463;-84
2021/08/05 11:25:57;;;;;;;6.85;1.45;;;;;;;;;;4154017;34;20049;-85
2021/08/05 11:28:30;;;;;;;3.85;1.17;;;;;;;;;;4156094;34;20056;-85
2021/08/05 11:30:58;;;;;;;7.40;1.20;;;;;;;;;;4151442;34;20560;-84
2021/08/05 11:33:45;;;;;;;6.03;1.40;;;;;;;;;;4157102;34;20041;-84
2021/08/05 11:36:25;;;;;;;8.55;1.52;;;;;;;;;;4153821;34;20127;-85
2021/08/05 11:39:05;;;;;;;7.22;1.60;;;;;;;;;;4155339;34;20064;-84
2021/08/05 11:41:41;;;;;;;7.22;1.48;;;;;;;;;;4154030;34;20208;-84
2021/08/05 11:44:25;;;;;;;8.02;1.90;;;;;;;;;;4156080;34;20036;-84
2021/08/05 11:47:09;;;;;;;7.82;1.40;;;;;;;;;;4153400;34;20075;-85
2021/08/05 11:49:40;;;;;;;12.18;1.60;;;;;;;;;;4157348;34;20083;-84
2021/08/05 11:52:11;;;;;;;7.07;1.30;;;;;;;;;;4151100;34;20422;-85
2021/08/05 11:54:41;;;;;;;16.75;1.98;;;;;;;;;;4156453;34;20060;-84
2021/08/05 11:57:14;;;;;;;7.40;1.48;;;;;;;;;;4152394;34;20167;-84
2021/08/05 11:59:51;;;;;;;8.35;1.50;;;;;;;;;;4153986;34;20538;-85
2021/08/05 12:02:23;;;;;;;6.32;1.35;;;;;;;;;;4154255;34;20443;-85
2021/08/05 12:04:55;;;;;;;6.78;1.30;;;;;;;;;;4169427;34;20778;-85
2021/08/05 12:07:26;;;;;;;5.55;1.27;;;;;;;;;;4154539;34;20041;-85
2021/08/05 12:09:56;;;;;;;6.68;1.40;;;;;;;;;;4155461;34;20090;-84
2021/08/05 12:12:27;;;;;;;4.68;1.30;;;;;;;;;;4155579;34;20082;-85
2021/08/05 12:14:57;;;;;;;6.18;1.48;;;;;;;;;;4154221;34;20425;-85
2021/08/05 12:17:39;;;;;;;5.47;1.70;;;;;;;;;;4153265;34;20052;-85
2021/08/05 12:20:12;;;;;;;5.25;1.30;;;;;;;;;;4155921;34;20047;-85
2021/08/05 12:22:43;;;;;;;4.87;1.48;;;;;;;;;;4151985;34;20084;-84
2021/08/05 12:25:24;;;;;;;6.57;1.62;;;;;;;;;;4155936;34;20376;-85
2021/08/05 12:27:57;;;;;;;5.07;1.25;;;;;;;;;;4151835;34;20102;-85
2021/08/05 12:30:32;;;;;;;6.85;1.30;;;;;;;;;;4153361;34;20411;-85
2021/08/05 12:33:03;;;;;;;7.68;1.50;;;;;;;;;;4142506;34;20412;-84
2021/08/05 12:35:31;;;;;;;5.12;1.17;;;;;;;;;;4147674;34;20082;-84
2021/08/05 12:38:04;;;;;;;5.05;1.50;;;;;;;;;;4153655;34;20064;-85
2021/08/05 12:40:33;;;;;;;7.32;1.40;;;;;;;;;;4140178;34;20057;-84
2021/08/05 12:43:03;;;;;;;6.90;1.40;;;;;;;;;;4142658;34;20139;-84
2021/08/05 12:45:35;;;;;;;9.93;1.37;;;;;;;;;;4151652;34;20092;-85
2021/08/05 12:48:04;;;;;;;9.20;1.90;;;;;;;;;;4150861;34;20104;-84
2021/08/05 12:50:36;;;;;;;8.32;1.40;;;;;;;;;;4152119;34;20053;-85
2021/08/05 12:53:30;;;;;;;3.70;0.98;;;;;;;;;;4153068;34;20122;-84
2021/08/05 12:56:03;;;;;;;5.90;1.10;;;;;;;;;;4156464;34;20036;-84
2021/08/05 12:58:31;;;;;;;9.35;1.65;;;;;;;;;;4151227;34;20163;-84
2021/08/05 13:01:17;;;;;;;7.75;1.48;;;;;;;;;;4148579;34;22300;-84
2021/08/05 13:03:47;;;;;;;6.82;1.40;;;;;;;;;;4144309;34;20064;-85
2021/08/05 13:06:17;;;;;;;6.28;1.30;;;;;;;;;;4148560;34;20047;-85
2021/08/05 13:08:47;;;;;;;8.98;1.90;;;;;;;;;;4140454;34;20087;-84
2021/08/05 13:11:34;;;;;;;4.95;1.30;;;;;;;;;;4152294;34;20105;-85
2021/08/05 13:14:03;;;;;;;4.10;1.10;;;;;;;;;;4144423;34;20157;-84
2021/08/05 13:16:32;;;;;;;3.47;1.33;;;;;;;;;;4151713;34;20163;-84
2021/08/05 13:19:01;;;;;;;6.68;1.55;;;;;;;;;;4149553;34;20146;-84
2021/08/05 13:21:32;;;;;;;8.32;1.55;;;;;;;;;;4152954;34;20032;-84
2021/08/05 13:24:13;;;;;;;6.37;1.35;;;;;;;;;;4142508;34;20048;-84
2021/08/05 13:26:46;;;;;;;8.50;1.92;;;;;;;;;;4167847;34;20082;-85
2021/08/05 13:29:33;;;;;;;8.15;1.75;;;;;;;;;;4146573;34;20608;-84
2021/08/05 13:32:02;;;;;;;7.62;1.83;;;;;;;;;;4149608;34;20416;-85
2021/08/05 13:34:30;;;;;;;6.90;1.42;;;;;;;;;;4155776;34;20070;-84
2021/08/05 13:36:59;;;;;;;7.60;1.40;;;;;;;;;;4158966;34;20088;-84
2021/08/05 13:39:46;;;;;;;7.60;1.40;;;;;;;;;;4150396;34;20434;-85
2021/08/05 13:42:15;;;;;;;6.40;1.70;;;;;;;;;;4154283;34;20098;-85
2021/08/05 13:44:44;;;;;;;7.07;1.30;;;;;;;;;;4145674;34;20084;-85
2021/08/05 13:47:14;;;;;;;6.90;1.40;;;;;;;;;;4155372;34;20040;-84
2021/08/05 13:49:43;;;;;;;11.30;1.60;;;;;;;;;;4152464;34;20453;-85
2021/08/05 13:52:12;;;;;;;3.95;1.05;;;;;;;;;;4154427;34;20056;-85
2021/08/05 13:54:41;;;;;;;5.03;1.27;;;;;;;;;;4151816;34;20065;-85
2021/08/05 13:57:10;;;;;;;6.57;1.48;;;;;;;;;;4152666;34;20670;-84
2021/08/05 13:59:39;;;;;;;7.28;1.35;;;;;;;;;;4152932;34;20049;-85
2021/08/05 14:02:07;;;;;;;7.40;1.30;;;;;;;;;;4154228;34;20511;-84
2021/08/05 14:04:36;;;;;;;6.40;1.52;;;;;;;;;;4151312;34;20053;-84
2021/08/05 14:07:05;;;;;;;7.45;1.65;;;;;;;;;;4154971;34;20313;-85
2021/08/05 14:09:33;;;;;;;11.12;1.58;;;;;;;;;;4152237;34;20325;-85
2021/08/05 14:12:03;;;;;;;6.47;1.58;;;;;;;;;;4151725;34;20044;-85
2021/08/05 14:14:32;;;;;;;6.32;1.52;;;;;;;;;;4151799;34;20163;-85
2021/08/05 14:17:01;;;;;;;6.70;1.20;;;;;;;;;;4154080;34;20500;-85
2021/08/05 14:19:30;;;;;;;4.22;1.20;;;;;;;;;;4138321;34;20447;-85
2021/08/05 14:21:58;;;;;;;5.82;1.10;;;;;;;;;;4153863;34;20509;-84
2021/08/05 14:24:26;;;;;;;3.75;0.90;;;;;;;;;;4151324;34;20056;-86
2021/08/05 14:26:56;;;;;;;6.45;1.60;;;;;;;;;;4142743;34;20102;-85
2021/08/05 14:29:25;;;;;;;3.95;1.17;;;;;;;;;;4144715;34;20077;-84
2021/08/05 14:31:53;;;;;;;4.47;1.05;;;;;;;;;;4153682;34;20151;-85
2021/08/05 14:34:22;;;;;;;4.15;1.30;;;;;;;;;;4141052;34;20096;-84
2021/08/05 14:36:50;;;;;;;3.10;0.95;;;;;;;;;;4148371;34;20476;-86
2021/08/05 14:39:20;;;;;;;3.75;1.10;;;;;;;;;;4150336;34;20851;-84
2021/08/05 14:41:49;;;;;;;4.78;1.20;;;;;;;;;;4147471;34;20534;-84
2021/08/05 14:44:17;;;;;;;3.70;1.17;;;;;;;;;;4145196;34;20040;-83
2021/08/05 14:46:45;;;;;;;3.47;0.98;;;;;;;;;;4146095;34;20118;-84
2021/08/05 14:49:16;;;;;;;4.57;1.20;;;;;;;;;;4147413;34;20108;-84
2021/08/05 14:51:45;;;;;;;4.87;0.98;;;;;;;;;;4147809;34;20086;-85
2021/08/05 14:54:14;;;;;;;6.53;1.20;;;;;;;;;;4143833;34;20199;-84
2021/08/05 14:56:43;;;;;;;5.68;1.20;;;;;;;;;;4139658;34;20182;-84
2021/08/05 14:59:11;;;;;;;5.80;1.10;;;;;;;;;;4139339;34;20124;-85
2021/08/05 15:01:41;;;;;;;5.03;1.30;;;;;;;;;;4138829;34;20092;-84
2021/08/05 15:04:10;;;;;;;5.12;1.00;;;;;;;;;;4139811;34;20173;-85
2021/08/05 15:06:38;;;;;;;4.47;1.15;;;;;;;;;;4141157;34;20075;-84
2021/08/05 15:09:09;;;;;;;11.80;1.65;;;;;;;;;;4143461;34;20137;-85
2021/08/05 15:11:38;;;;;;;4.12;1.00;;;;;;;;;;4143043;34;20464;-85
2021/08/05 15:14:06;;;;;;;11.65;1.50;;;;;;;;;;4135427;34;20096;-85
2021/08/05 15:16:35;;;;;;;6.53;1.27;;;;;;;;;;4141275;34;20076;-84
2021/08/05 15:19:04;;;;;;;6.97;1.12;;;;;;;;;;4140571;34;20061;-84
2021/08/05 15:21:34;;;;;;;8.77;1.50;;;;;;;;;;4141038;34;20073;-85
2021/08/05 15:24:06;;;;;;;4.10;0.95;;;;;;;;;;4141933;34;20088;-85
2021/08/05 15:26:39;;;;;;;3.80;1.08;;;;;;;;;;4141260;34;20114;-85
2021/08/05 15:29:08;;;;;;;11.27;1.80;;;;;;;;;;4140765;34;20685;-84
2021/08/05 15:31:37;;;;;;;8.70;1.50;;;;;;;;;;4146085;34;20482;-84
2021/08/05 15:34:06;;;;;;;3.62;1.08;;;;;;;;;;4138827;34;20092;-85
2021/08/05 15:36:35;;;;;;;4.30;0.80;;;;;;;;;;4145723;34;20438;-85
2021/08/05 15:39:06;;;;;;;2.58;0.88;;;;;;;;;;4143229;34;20091;-84
2021/08/05 15:41:35;;;;;;;3.85;3.65;;;;;;;;;;4145733;34;20064;-85
2021/08/05 15:44:04;;;;;;;8.35;7.90;;;;;;;;;;4137038;34;20088;-84
2021/08/05 15:46:34;;;;;;;1.55;0.60;;;;;;;;;;4138375;34;20088;-84
2021/08/05 15:49:03;;;;;;;1.40;1.25;;;;;;;;;;4136247;34;20052;-85
2021/08/05 15:51:31;;;;;;;1.25;0.50;;;;;;;;;;4150036;34;20041;-85
2021/08/05 15:54:03;;;;;;;10.32;2.45;;;;;;;;;;4143615;34;20076;-85
2021/08/05 15:56:32;;;;;;;2.30;1.40;;;;;;;;;;4136487;34;20103;-85
2021/08/05 15:59:00;;;;;;;3.55;0.90;;;;;;;;;;4145467;34;20120;-85
2021/08/05 16:01:29;;;;;;;6.85;3.78;;;;;;;;;;4136102;34;21468;-84
2021/08/05 16:03:57;;;;;;;5.87;2.35;;;;;;;;;;4144992;34;20113;-85
2021/08/05 16:06:26;;;;;;;4.97;2.95;;;;;;;;;;4144366;34;20436;-84
2021/08/05 16:08:54;;;;;;;3.95;3.30;;;;;;;;;;4142937;34;20076;-85
2021/08/05 16:11:23;;;;;;;4.85;4.45;;;;;;;;;;4147362;34;20147;-85
2021/08/05 16:13:51;;;;;;;7.62;7.07;;;;;;;;;;4145114;34;20052;-85
2021/08/05 16:16:20;;;;;;;3.53;2.78;;;;;;;;;;4147067;34;20492;-84
2021/08/05 16:18:48;;;;;;;14.20;13.20;;;;;;;;;;4146251;34;20094;-84
2021/08/05 16:21:17;;;;;;;22.30;20.33;;;;;;;;;;4146312;34;20111;-85
2021/08/05 16:23:45;;;;;;;15.93;14.45;;;;;;;;;;4140994;34;20462;-85
2021/08/05 16:26:14;;;;;;;22.23;20.30;;;;;;;;;;4138523;34;20086;-84
2021/08/05 16:28:42;;;;;;;23.00;20.80;;;;;;;;;;4143992;34;20167;-85
2021/08/05 16:31:10;;;;;;;23.00;20.90;;;;;;;;;;4150112;34;20134;-85
2021/08/05 16:33:39;;;;;;;18.37;17.00;;;;;;;;;;4146907;34;20585;-85
2021/08/05 16:36:08;;;;;;;21.98;19.98;;;;;;;;;;4137075;34;20036;-85
2021/08/05 16:38:37;;;;;;;15.93;14.63;;;;;;;;;;4137642;34;20060;-84
2021/08/05 16:41:05;;;;;;;16.70;15.57;;;;;;;;;;4141715;34;20550;-85
2021/08/05 16:43:34;;;;;;;11.35;10.43;;;;;;;;;;4145130;34;20542;-85
2021/08/05 16:46:02;;;;;;;18.65;17.00;;;;;;;;;;4141232;34;22106;-84
2021/08/05 16:48:33;;;;;;;16.67;15.48;;;;;;;;;;4144121;34;20584;-85
2021/08/05 16:51:02;;;;;;;14.98;13.73;;;;;;;;;;4148467;34;20219;-85
2021/08/05 16:53:30;;;;;;;18.70;17.02;;;;;;;;;;4146984;34;21551;-84
2021/08/05 16:55:59;;;;;;;13.10;12.30;;;;;;;;;;4146888;34;20397;-84
2021/08/05 16:58:27;;;;;;;21.02;19.27;;;;;;;;;;4145309;34;20478;-84
2021/08/05 17:00:56;;;;;;;18.08;16.35;;;;;;;;;;4146350;34;20738;-85
2021/08/05 17:03:25;;;;;;;24.90;22.65;;;;;;;;;;4146126;34;20125;-85
2021/08/05 17:05:54;;;;;;;24.80;22.70;;;;;;;;;;4144909;34;20092;-85
2021/08/05 17:08:23;;;;;;;34.28;31.02;;;;;;;;;;4142715;34;20066;-84
2021/08/05 17:10:52;;;;;;;32.33;28.95;;;;;;;;;;4147475;34;20056;-85
2021/08/05 17:13:20;;;;;;;26.20;23.75;;;;;;;;;;4147701;34;20087;-85
2021/08/05 17:15:48;;;;;;;24.15;22.25;;;;;;;;;;4144509;34;20099;-85
2021/08/05 17:18:17;;;;;;;22.05;20.55;;;;;;;;;;4139969;34;20433;-85
2021/08/05 17:20:46;;;;;;;23.42;21.40;;;;;;;;;;4147060;34;20519;-85
2021/08/05 17:23:14;;;;;;;18.15;16.95;;;;;;;;;;4131786;34;20420;-85
2021/08/05 17:25:43;;;;;;;19.35;17.80;;;;;;;;;;4150854;34;20449;-84
2021/08/05 17:28:11;;;;;;;24.12;22.08;;;;;;;;;;4145348;34;20665;-84
2021/08/05 17:30:40;;;;;;;30.48;27.62;;;;;;;;;;4145284;34;20118;-84
2021/08/05 17:33:09;;;;;;;31.55;28.30;;;;;;;;;;4146666;34;20082;-85
2021/08/05 17:35:48;;;;;;;52.30;47.20;;;;;;;;;;4146624;34;20429;-84
2021/08/05 17:38:17;;;;;;;68.35;61.05;;;;;;;;;;4145340;34;20358;-85
2021/08/05 17:40:45;;;;;;;114.35;77.40;;;;;;;;;;4148039;34;20118;-84
2021/08/05 17:43:14;;;;;;;121.47;73.37;;;;;;;;;;4144507;34;20451;-85
2021/08/05 17:45:43;;;;;;;139.02;80.30;;;;;;;;;;4147326;34;20045;-85
2021/08/05 17:48:11;;;;;;;135.07;72.10;;;;;;;;;;4143864;34;20047;-85
2021/08/05 17:50:40;;;;;;;66.72;51.08;;;;;;;;;;4145092;34;20045;-83
2021/08/05 17:53:09;;;;;;;74.47;52.08;;;;;;;;;;4147664;34;20052;-84
2021/08/05 17:55:37;;;;;;;76.60;50.12;;;;;;;;;;4146806;34;20805;-84
2021/08/05 17:58:06;;;;;;;76.97;52.35;;;;;;;;;;4144207;34;20136;-84
2021/08/05 18:00:34;;;;;;;138.90;49.85;;;;;;;;;;4144975;34;20420;-84
2021/08/05 18:03:06;;;;;;;99.15;53.78;;;;;;;;;;4147218;34;20048;-84
2021/08/05 18:05:35;;;;;;;119.62;60.40;;;;;;;;;;4150669;34;20119;-85
2021/08/05 18:08:04;;;;;;;118.47;57.97;;;;;;;;;;4140136;34;20117;-85
2021/08/05 18:10:33;;;;;;;113.72;55.65;;;;;;;;;;4146271;34;20104;-84
2021/08/05 18:13:02;;;;;;;88.28;49.85;;;;;;;;;;4146789;34;20087;-84
2021/08/05 18:15:31;;;;;;;92.50;52.20;;;;;;;;;;4149315;34;20153;-83
2021/08/05 18:18:00;;;;;;;92.75;51.22;;;;;;;;;;4143285;34;20155;-85
2021/08/05 18:20:28;;;;;;;80.95;48.80;;;;;;;;;;4144446;34;20585;-85
2021/08/05 18:22:57;;;;;;;80.55;48.05;;;;;;;;;;4147294;34;20095;-83
2021/08/05 18:25:25;;;;;;;82.12;50.33;;;;;;;;;;4136569;34;20083;-83
2021/08/05 18:27:54;;;;;;;57.03;37.15;;;;;;;;;;4140856;34;20234;-84
2021/08/05 18:30:22;;;;;;;49.78;39.15;;;;;;;;;;4139079;34;20053;-84
2021/08/05 18:32:51;;;;;;;46.70;38.72;;;;;;;;;;4148435;34;20049;-85
2021/08/05 18:35:19;;;;;;;48.22;38.72;;;;;;;;;;4149661;34;20045;-84
2021/08/05 18:37:47;;;;;;;39.95;34.38;;;;;;;;;;4150213;34;20082;-84
2021/08/05 18:40:17;;;;;;;88.45;44.65;;;;;;;;;;4141382;34;20080;-85
2021/08/05 18:42:46;;;;;;;71.18;43.72;;;;;;;;;;4140581;34;20045;-84
2021/08/05 18:45:14;;;;;;;99.50;44.95;;;;;;;;;;4149299;34;20328;-84
2021/08/05 18:47:43;;;;;;;112.57;44.17;;;;;;;;;;4148529;34;20074;-85
2021/08/05 18:50:12;;;;;;;81.12;41.88;;;;;;;;;;4146316;34;20053;-84
2021/08/05 18:52:40;;;;;;;76.57;40.60;;;;;;;;;;4146995;34;20434;-85
2021/08/05 18:55:09;;;;;;;82.50;40.72;;;;;;;;;;4142460;34;20077;-84
2021/08/05 18:57:37;;;;;;;62.30;39.85;;;;;;;;;;4137943;34;20060;-84
2021/08/05 19:00:06;;;;;;;75.50;41.25;;;;;;;;;;4140264;34;20147;-84
2021/08/05 19:02:35;;;;;;;62.20;40.92;;;;;;;;;;4150297;34;20104;-84
2021/08/05 19:05:04;;;;;;;33.83;29.90;;;;;;;;;;4147489;34;20044;-85
2021/08/05 19:07:33;;;;;;;34.65;28.58;;;;;;;;;;4144656;34;20143;-84
2021/08/05 19:10:02;;;;;;;34.90;30.83;;;;;;;;;;4147248;34;20072;-83
2021/08/05 19:12:33;;;;;;;59.63;35.15;;;;;;;;;;4147566;34;21273;-83
2021/08/05 19:15:01;;;;;;;42.13;37.63;;;;;;;;;;4150709;34;20100;-84
2021/08/05 19:17:30;;;;;;;40.28;35.28;;;;;;;;;;4149478;34;20066;-84